Melville, Montana
Current Conditions -  °F | °C
As of 6:53 PM on Wednesday 22 Oct 2014 (Local Time) from KLVM Reporting Station
Clear Clear  
Wind Chill: 54°   Ceiling: Unl
Heat Index: 54°   Visibility: 10mi
Dew Point: 24°   Wind: 26mph
Humidity: 31%   Direction: 230°SW
Pressure: 29.98"   Gusts: 39mph
Location:  46.1°N, 109.96°W
Report Text: KLVM 230053Z AUTO 23023G34KT 10SM CLR 12/M04 A2998 RMK AO2 PK WND 23036/0039 SLP139 T01221044
Loading
Personal Weather Stations






























Interactive Weather Map
Tropical Storm Tracking
New forecast layout! Learn more

10-Day Weather Forecast

Advertisements
Track Severe Weather on mobile